createdAt,value
2022-08-20T00:02:13.857Z,19.87
2022-08-20T00:04:43.131Z,19.87
2022-08-20T00:07:11.063Z,19.85
2022-08-20T00:09:38.925Z,19.85
2022-08-20T00:12:07.538Z,19.83
2022-08-20T00:14:36.417Z,19.77
2022-08-20T00:17:05.868Z,19.71
2022-08-20T00:19:33.719Z,19.66
2022-08-20T00:22:02.983Z,19.62
2022-08-20T00:24:31.284Z,19.60
2022-08-20T00:26:59.145Z,19.58
2022-08-20T00:29:27.086Z,19.59
2022-08-20T00:31:54.923Z,19.58
2022-08-20T00:34:22.953Z,19.58
2022-08-20T00:36:50.791Z,19.58
2022-08-20T00:39:19.942Z,19.57
2022-08-20T00:41:47.791Z,19.57
2022-08-20T00:44:18.617Z,19.56
2022-08-20T00:46:47.872Z,19.55
2022-08-20T00:49:18.716Z,19.54
2022-08-20T00:51:50.237Z,19.50
2022-08-20T00:54:23.413Z,19.52
2022-08-20T00:56:57.165Z,19.51
2022-08-20T00:59:28.058Z,19.51
2022-08-20T01:01:56.671Z,19.50
2022-08-20T01:04:26.430Z,19.51
2022-08-20T01:06:55.212Z,19.50
2022-08-20T01:09:49.767Z,19.48
2022-08-20T01:12:28.411Z,19.46
2022-08-20T01:14:59.023Z,19.45
2022-08-20T01:17:29.871Z,19.44
2022-08-20T01:20:02.415Z,19.43
2022-08-20T01:22:57.316Z,19.43
2022-08-20T01:25:33.492Z,19.44
2022-08-20T01:28:03.302Z,19.42
2022-08-20T01:30:34.983Z,19.41
2022-08-20T01:33:02.980Z,19.41
2022-08-20T01:35:31.124Z,19.41
2022-08-20T01:37:58.962Z,19.41
2022-08-20T01:40:45.514Z,19.40
2022-08-20T01:43:15.191Z,19.39
2022-08-20T01:45:45.197Z,19.39
2022-08-20T01:48:14.117Z,19.36
2022-08-20T01:50:48.731Z,19.38
2022-08-20T01:53:23.241Z,19.37
2022-08-20T01:55:51.271Z,19.36
2022-08-20T01:58:20.543Z,19.36
2022-08-20T02:00:48.558Z,19.36
2022-08-20T02:03:16.373Z,19.37
2022-08-20T02:05:45.228Z,19.35
2022-08-20T02:08:13.201Z,19.34
2022-08-20T02:10:41.578Z,19.34
2022-08-20T02:13:10.215Z,19.33
2022-08-20T02:15:39.944Z,19.33
2022-08-20T02:18:14.304Z,19.31
2022-08-20T02:20:44.487Z,19.31
2022-08-20T02:23:13.209Z,19.31
2022-08-20T02:25:43.233Z,19.28
2022-08-20T02:28:14.216Z,19.28
2022-08-20T02:30:47.030Z,19.28
2022-08-20T02:33:17.315Z,19.28
2022-08-20T02:35:47.976Z,19.28
2022-08-20T02:38:17.565Z,19.28
2022-08-20T02:40:49.126Z,19.28
2022-08-20T02:43:18.379Z,19.26
2022-08-20T02:45:48.242Z,19.26
2022-08-20T02:48:22.759Z,19.25
2022-08-20T02:50:56.821Z,19.23
2022-08-20T02:53:25.558Z,19.23
2022-08-20T02:55:53.695Z,19.23
2022-08-20T02:58:22.648Z,19.23
2022-08-20T03:00:51.993Z,19.22
2022-08-20T03:03:22.718Z,19.22
2022-08-20T03:05:52.628Z,19.20
2022-08-20T03:08:21.757Z,19.20
2022-08-20T03:10:50.576Z,19.19
2022-08-20T03:13:19.921Z,19.18
2022-08-20T03:15:56.477Z,19.16
2022-08-20T03:18:28.889Z,19.17
2022-08-20T03:20:56.895Z,19.15
2022-08-20T03:23:25.167Z,19.14
2022-08-20T03:25:53.098Z,19.13
2022-08-20T03:28:21.170Z,19.14
2022-08-20T03:30:50.467Z,19.12
2022-08-20T03:33:20.317Z,19.12
2022-08-20T03:35:48.398Z,19.11
2022-08-20T03:38:18.677Z,19.12
2022-08-20T03:41:00.856Z,19.10
2022-08-20T03:43:29.215Z,19.09
2022-08-20T03:45:57.165Z,19.09
2022-08-20T03:48:26.631Z,19.08
2022-08-20T03:50:56.702Z,19.08
2022-08-20T03:53:24.665Z,19.06
2022-08-20T03:56:00.455Z,19.06
2022-08-20T03:58:35.428Z,19.05
2022-08-20T04:01:06.728Z,19.05
2022-08-20T04:03:36.705Z,19.03
2022-08-20T04:06:05.199Z,19.01
2022-08-20T04:08:33.088Z,18.99
2022-08-20T04:11:01.201Z,18.99
2022-08-20T04:13:31.679Z,18.97
2022-08-20T04:16:01.884Z,18.97
2022-08-20T04:18:29.977Z,18.95
2022-08-20T04:20:59.250Z,18.95
2022-08-20T04:23:27.074Z,18.93
2022-08-20T04:25:56.631Z,18.93
2022-08-20T04:28:26.945Z,18.92
2022-08-20T04:30:55.892Z,18.90
2022-08-20T04:33:35.334Z,18.90
2022-08-20T04:36:07.022Z,18.88
2022-08-20T04:38:50.448Z,18.88
2022-08-20T04:41:22.811Z,18.87
2022-08-20T04:43:53.144Z,18.86
2022-08-20T04:46:23.655Z,18.86
2022-08-20T04:48:51.611Z,18.85
2022-08-20T04:51:22.903Z,18.85
2022-08-20T04:53:53.555Z,18.86
2022-08-20T04:56:24.028Z,18.86
2022-08-20T04:58:53.295Z,18.86
2022-08-20T05:01:21.948Z,18.86
2022-08-20T05:03:49.983Z,18.86
2022-08-20T05:06:19.921Z,18.85
2022-08-20T05:08:48.162Z,18.85
2022-08-20T05:11:36.049Z,18.86
2022-08-20T05:14:05.708Z,18.86
2022-08-20T05:16:38.332Z,18.86
2022-08-20T05:19:08.748Z,18.88
2022-08-20T05:21:38.239Z,18.89
2022-08-20T05:24:06.777Z,18.90
2022-08-20T05:26:34.960Z,18.91
2022-08-20T05:29:04.938Z,18.91
2022-08-20T05:31:33.689Z,18.94
2022-08-20T05:34:09.765Z,18.95
2022-08-20T05:36:41.536Z,18.98
2022-08-20T05:39:10.420Z,19.02
2022-08-20T05:41:38.963Z,19.06
2022-08-20T05:44:10.130Z,19.10
2022-08-20T05:46:40.477Z,19.14
2022-08-20T05:49:08.618Z,19.17
2022-08-20T05:51:37.496Z,19.19
2022-08-20T05:54:07.958Z,19.23
2022-08-20T05:56:36.061Z,19.27
2022-08-20T05:59:06.020Z,19.30
2022-08-20T06:01:35.393Z,19.32
2022-08-20T06:04:21.352Z,19.36
2022-08-20T06:06:51.158Z,19.39
2022-08-20T06:09:31.572Z,19.42
2022-08-20T06:12:01.799Z,19.44
2022-08-20T06:14:29.873Z,19.48
2022-08-20T06:17:04.090Z,19.52
2022-08-20T06:19:33.256Z,19.54
2022-08-20T06:22:02.102Z,19.58
2022-08-20T06:24:32.906Z,19.60
2022-08-20T06:27:02.775Z,19.65
2022-08-20T06:29:33.416Z,19.68
2022-08-20T06:32:02.049Z,19.70
2022-08-20T06:34:31.233Z,19.73
2022-08-20T06:37:00.162Z,19.78
2022-08-20T06:39:29.210Z,19.82
2022-08-20T06:41:59.551Z,19.88
2022-08-20T06:44:28.545Z,19.92
2022-08-20T06:47:00.842Z,19.98
2022-08-20T06:49:28.773Z,20.04
2022-08-20T06:52:03.471Z,20.12
2022-08-20T06:54:32.702Z,20.18
2022-08-20T06:57:02.206Z,20.24
2022-08-20T06:59:30.171Z,20.31
2022-08-20T07:01:58.075Z,20.37
2022-08-20T07:04:27.253Z,20.42
2022-08-20T07:06:55.650Z,20.46
2022-08-20T07:09:23.514Z,20.52
2022-08-20T07:11:52.273Z,20.58
2022-08-20T07:14:22.301Z,20.67
2022-08-20T07:16:50.599Z,20.77
2022-08-20T07:19:18.664Z,20.88
2022-08-20T07:21:47.640Z,20.99
2022-08-20T07:24:15.527Z,21.07
2022-08-20T07:26:43.824Z,21.11
2022-08-20T07:29:11.702Z,21.17
2022-08-20T07:31:58.241Z,21.23
2022-08-20T07:34:26.102Z,21.32
2022-08-20T07:36:53.944Z,21.38
2022-08-20T07:39:22.883Z,21.42
2022-08-20T07:42:03.123Z,21.47
2022-08-20T07:44:31.404Z,21.50
2022-08-20T07:47:01.037Z,21.46
2022-08-20T07:49:28.884Z,21.38
2022-08-20T07:51:56.868Z,21.35
2022-08-20T07:54:24.923Z,21.31
2022-08-20T07:56:52.842Z,21.29
2022-08-20T07:59:20.705Z,21.29
2022-08-20T08:01:49.176Z,21.30
2022-08-20T08:04:18.414Z,21.31
2022-08-20T08:06:46.252Z,21.32
2022-08-20T08:09:15.585Z,21.30
2022-08-20T08:11:50.352Z,21.29
2022-08-20T08:14:23.599Z,21.32
2022-08-20T08:16:51.957Z,21.34
2022-08-20T08:19:21.957Z,21.35
2022-08-20T08:21:50.018Z,21.36
2022-08-20T08:24:21.023Z,21.40
2022-08-20T08:26:50.830Z,21.42
2022-08-20T08:29:18.976Z,21.45
2022-08-20T08:31:46.892Z,21.46
2022-08-20T08:34:25.384Z,21.46
2022-08-20T08:36:54.613Z,21.48
2022-08-20T08:39:23.978Z,21.50
2022-08-20T08:41:55.062Z,21.54
2022-08-20T08:44:27.141Z,21.59
2022-08-20T08:46:58.124Z,21.62
2022-08-20T08:49:37.526Z,21.67
2022-08-20T08:52:14.794Z,21.71
2022-08-20T08:54:47.333Z,21.75
2022-08-20T08:57:15.722Z,21.81
2022-08-20T08:59:58.176Z,21.88
2022-08-20T09:02:32.239Z,21.97
2022-08-20T09:05:03.397Z,22.09
2022-08-20T09:07:34.693Z,22.16
2022-08-20T09:10:03.233Z,22.22
2022-08-20T09:12:31.253Z,22.24
2022-08-20T09:14:59.106Z,22.30
2022-08-20T09:17:26.932Z,22.38
2022-08-20T09:19:54.744Z,22.44
2022-08-20T09:22:25.938Z,22.49
2022-08-20T09:24:56.282Z,22.50
2022-08-20T09:27:24.120Z,22.51
2022-08-20T09:29:53.460Z,22.55
2022-08-20T09:32:24.550Z,22.62
2022-08-20T09:34:56.882Z,22.65
2022-08-20T09:37:26.662Z,22.71
2022-08-20T09:39:56.412Z,22.76
2022-08-20T09:42:26.158Z,22.83
2022-08-20T09:44:54.341Z,22.91
2022-08-20T09:47:22.811Z,23.00
2022-08-20T09:49:51.047Z,23.06
2022-08-20T09:52:24.598Z,23.17
2022-08-20T09:54:58.171Z,23.29
2022-08-20T09:57:27.422Z,23.43
2022-08-20T09:59:58.148Z,23.59
2022-08-20T10:02:26.155Z,23.74
2022-08-20T10:04:54.119Z,23.84
2022-08-20T10:07:21.944Z,23.95
2022-08-20T10:09:49.748Z,24.02
2022-08-20T10:12:18.981Z,24.09
2022-08-20T10:14:46.770Z,24.18
2022-08-20T10:17:15.605Z,24.31
2022-08-20T10:19:43.435Z,24.41
2022-08-20T10:22:12.397Z,24.53
2022-08-20T10:24:40.216Z,24.64
2022-08-20T10:27:08.197Z,24.72
2022-08-20T10:29:37.409Z,24.79
2022-08-20T10:32:13.270Z,24.85
2022-08-20T10:34:41.768Z,24.93
2022-08-20T10:37:09.886Z,24.90
2022-08-20T10:39:37.735Z,24.92
2022-08-20T10:42:05.791Z,24.93
2022-08-20T10:44:33.636Z,24.96
2022-08-20T10:47:14.497Z,24.98
2022-08-20T10:49:42.440Z,25.02
2022-08-20T10:52:10.254Z,25.06
2022-08-20T10:54:41.412Z,25.10
2022-08-20T10:57:10.939Z,25.14
2022-08-20T10:59:40.486Z,25.19
2022-08-20T11:02:09.920Z,25.23
2022-08-20T11:04:38.105Z,25.20
2022-08-20T11:07:13.950Z,25.20
2022-08-20T11:09:42.071Z,25.12
2022-08-20T11:12:10.404Z,25.09
2022-08-20T11:14:38.285Z,25.11
2022-08-20T11:17:07.080Z,25.09
2022-08-20T11:19:40.804Z,25.10
2022-08-20T11:22:09.279Z,25.02
2022-08-20T11:24:37.872Z,24.96
2022-08-20T11:27:08.650Z,24.82
2022-08-20T11:29:36.942Z,24.76
2022-08-20T11:32:06.536Z,24.68
2022-08-20T11:34:36.300Z,24.58
2022-08-20T11:37:04.265Z,24.47
2022-08-20T11:39:32.088Z,24.33
2022-08-20T11:41:59.940Z,24.23
2022-08-20T11:44:27.857Z,24.17
2022-08-20T11:46:58.271Z,24.12
2022-08-20T11:49:26.194Z,24.04
2022-08-20T11:51:55.350Z,23.99
2022-08-20T11:54:23.194Z,23.98
2022-08-20T11:56:51.153Z,23.97
2022-08-20T11:59:18.999Z,23.95
2022-08-20T12:02:02.957Z,23.94
2022-08-20T12:04:36.359Z,23.96
2022-08-20T12:07:14.736Z,23.98
2022-08-20T12:09:51.040Z,23.95
2022-08-20T12:12:22.380Z,23.96
2022-08-20T12:14:50.186Z,23.93
2022-08-20T12:17:21.406Z,23.86
2022-08-20T12:19:49.255Z,23.79
2022-08-20T12:22:24.368Z,23.75
2022-08-20T12:24:54.163Z,23.70
2022-08-20T12:27:24.297Z,23.61
2022-08-20T12:29:53.528Z,23.51
2022-08-20T12:32:22.042Z,23.49
2022-08-20T12:34:50.117Z,23.40
2022-08-20T12:37:21.424Z,23.34
2022-08-20T12:39:51.250Z,23.33
2022-08-20T12:42:20.051Z,23.31
2022-08-20T12:44:48.578Z,23.32
2022-08-20T12:47:19.250Z,23.34
2022-08-20T12:49:49.268Z,23.36
2022-08-20T12:52:19.915Z,23.40
2022-08-20T12:54:48.252Z,23.48
2022-08-20T12:57:17.134Z,23.54
2022-08-20T12:59:44.947Z,23.62
2022-08-20T13:02:15.777Z,23.65
2022-08-20T13:04:47.123Z,23.71
2022-08-20T13:07:16.175Z,23.70
2022-08-20T13:09:45.560Z,23.74
2022-08-20T13:12:14.309Z,23.79
2022-08-20T13:14:42.752Z,23.83
2022-08-20T13:17:11.233Z,23.87
2022-08-20T13:19:40.057Z,23.98
2022-08-20T13:22:07.942Z,24.05
2022-08-20T13:24:35.709Z,24.15
2022-08-20T13:27:10.136Z,24.20
2022-08-20T13:29:38.099Z,24.26
2022-08-20T13:32:06.686Z,24.35
2022-08-20T13:34:34.516Z,24.45
2022-08-20T13:37:02.459Z,24.53
2022-08-20T13:39:30.262Z,24.61
2022-08-20T13:41:58.071Z,24.62
2022-08-20T13:44:31.336Z,24.68
2022-08-20T13:47:01.473Z,24.74
2022-08-20T13:49:29.269Z,24.80
2022-08-20T13:52:01.713Z,24.83
2022-08-20T13:54:30.212Z,24.93
2022-08-20T13:57:05.991Z,24.94
2022-08-20T13:59:38.211Z,24.97
2022-08-20T14:02:07.531Z,25.02
2022-08-20T14:04:35.699Z,25.07
2022-08-20T14:07:11.645Z,25.08
2022-08-20T14:09:40.662Z,25.03
2022-08-20T14:12:09.588Z,25.00
2022-08-20T14:14:38.775Z,25.06
2022-08-20T14:17:17.258Z,25.12
2022-08-20T14:19:45.236Z,25.20
2022-08-20T14:22:13.253Z,25.25
2022-08-20T14:24:41.306Z,25.26
2022-08-20T14:27:10.402Z,25.30
2022-08-20T14:29:42.230Z,25.29
2022-08-20T14:32:11.042Z,25.28
2022-08-20T14:34:39.900Z,25.25
2022-08-20T14:37:12.920Z,25.29
2022-08-20T14:39:40.940Z,25.34
2022-08-20T14:42:09.222Z,25.34
2022-08-20T14:44:37.155Z,25.37
2022-08-20T14:47:17.982Z,25.38
2022-08-20T14:49:46.613Z,25.36
2022-08-20T14:52:16.890Z,25.37
2022-08-20T14:54:45.624Z,25.38
2022-08-20T14:57:16.074Z,25.36
2022-08-20T14:59:44.355Z,25.35
2022-08-20T15:02:14.439Z,25.32
2022-08-20T15:04:45.378Z,25.35
2022-08-20T15:07:25.493Z,25.34
2022-08-20T15:09:57.030Z,25.30
2022-08-20T15:12:25.776Z,25.27
2022-08-20T15:14:53.689Z,25.20
2022-08-20T15:17:24.159Z,25.20
2022-08-20T15:19:54.045Z,25.18
2022-08-20T15:22:23.476Z,25.17
2022-08-20T15:24:55.576Z,25.15
2022-08-20T15:27:26.714Z,25.14
2022-08-20T15:29:55.019Z,25.09
2022-08-20T15:32:22.982Z,25.02
2022-08-20T15:34:51.211Z,25.00
2022-08-20T15:37:22.415Z,25.00
2022-08-20T15:39:51.319Z,25.01
2022-08-20T15:42:20.127Z,25.00
2022-08-20T15:44:48.317Z,24.97
2022-08-20T15:47:25.234Z,24.94
2022-08-20T15:49:57.078Z,24.90
2022-08-20T15:52:32.205Z,24.87
2022-08-20T15:55:02.053Z,24.83
2022-08-20T15:57:42.082Z,24.82
2022-08-20T16:00:16.313Z,24.77
2022-08-20T16:03:17.210Z,24.73
2022-08-20T16:05:53.003Z,24.64
2022-08-20T16:08:49.562Z,24.58
2022-08-20T16:11:29.832Z,24.53
2022-08-20T16:14:04.585Z,24.50
2022-08-20T16:16:34.685Z,24.50
2022-08-20T16:19:04.114Z,24.49
2022-08-20T16:21:37.163Z,24.45
2022-08-20T16:24:07.755Z,24.45
2022-08-20T16:26:57.975Z,24.45
2022-08-20T16:29:32.769Z,24.46
2022-08-20T16:32:04.710Z,24.45
2022-08-20T16:34:37.941Z,24.45
2022-08-20T16:37:12.922Z,24.44
2022-08-20T16:39:49.855Z,24.41
2022-08-20T16:42:24.273Z,24.40
2022-08-20T16:44:57.741Z,24.40
2022-08-20T16:47:30.486Z,24.39
2022-08-20T16:50:01.723Z,24.39
2022-08-20T16:52:29.814Z,24.37
2022-08-20T16:54:59.280Z,24.32
2022-08-20T16:57:28.383Z,24.28
2022-08-20T17:00:07.832Z,24.24
2022-08-20T17:02:35.824Z,24.21
2022-08-20T17:05:04.845Z,24.22
2022-08-20T17:07:44.897Z,24.19
2022-08-20T17:10:21.328Z,24.18
2022-08-20T17:12:54.588Z,24.13
2022-08-20T17:15:26.641Z,24.11
2022-08-20T17:17:55.993Z,24.09
2022-08-20T17:20:28.054Z,24.05
2022-08-20T17:23:18.458Z,24.03
2022-08-20T17:25:57.796Z,23.99
2022-08-20T17:28:26.500Z,23.96
2022-08-20T17:30:54.839Z,23.92
2022-08-20T17:33:34.807Z,23.87
2022-08-20T17:36:11.216Z,23.82
2022-08-20T17:38:46.855Z,23.78
2022-08-20T17:41:24.395Z,23.75
2022-08-20T17:43:58.718Z,23.69
2022-08-20T17:46:30.338Z,23.65
2022-08-20T17:49:00.979Z,23.60
2022-08-20T17:51:34.809Z,23.55
2022-08-20T17:54:10.192Z,23.50
2022-08-20T17:56:41.937Z,23.46
2022-08-20T17:59:24.070Z,23.41
2022-08-20T18:02:04.964Z,23.33
2022-08-20T18:04:32.959Z,23.27
2022-08-20T18:07:09.420Z,23.20
2022-08-20T18:09:44.624Z,23.12
2022-08-20T18:12:34.298Z,23.04
2022-08-20T18:15:09.467Z,22.96
2022-08-20T18:18:08.721Z,22.87
2022-08-20T18:21:00.242Z,22.81
2022-08-20T18:23:31.128Z,22.72
2022-08-20T18:26:05.040Z,22.64
2022-08-20T18:28:39.563Z,22.56
2022-08-20T18:31:10.574Z,22.46
2022-08-20T18:33:42.114Z,22.39
2022-08-20T18:36:13.586Z,22.33
2022-08-20T18:38:43.071Z,22.25
2022-08-20T18:41:14.093Z,22.18
2022-08-20T18:43:44.487Z,22.11
2022-08-20T18:46:22.735Z,22.04
2022-08-20T18:48:53.350Z,21.96
2022-08-20T18:51:24.971Z,21.90
2022-08-20T18:53:52.983Z,21.82
2022-08-20T18:56:33.530Z,21.75
2022-08-20T18:59:07.056Z,21.71
2022-08-20T19:01:37.466Z,21.64
2022-08-20T19:04:18.218Z,21.57
2022-08-20T19:06:51.662Z,21.51
2022-08-20T19:09:45.233Z,21.45
2022-08-20T19:12:30.511Z,21.39
2022-08-20T19:15:07.454Z,21.32
2022-08-20T19:17:45.855Z,21.25
2022-08-20T19:20:19.039Z,21.19
2022-08-20T19:22:48.455Z,21.10
2022-08-20T19:25:28.204Z,21.06
2022-08-20T19:27:58.299Z,21.00
2022-08-20T19:30:38.703Z,20.94
2022-08-20T19:33:08.117Z,20.88
2022-08-20T19:35:37.708Z,20.84
2022-08-20T19:38:07.855Z,20.78
2022-08-20T19:40:40.145Z,20.72
2022-08-20T19:43:16.207Z,20.67
2022-08-20T19:45:49.360Z,20.61
2022-08-20T19:48:56.393Z,20.53
2022-08-20T19:51:31.677Z,20.50
2022-08-20T19:53:59.513Z,20.44
2022-08-20T19:56:29.033Z,20.37
2022-08-20T19:59:02.412Z,20.32
2022-08-20T20:01:32.542Z,20.25
2022-08-20T20:04:02.716Z,20.20
2022-08-20T20:06:34.696Z,20.15
2022-08-20T20:09:07.242Z,20.11
2022-08-20T20:11:37.647Z,20.05
2022-08-20T20:14:07.455Z,19.99
2022-08-20T20:16:38.432Z,19.94
2022-08-20T20:19:27.772Z,19.88
2022-08-20T20:22:10.405Z,19.83
2022-08-20T20:24:49.956Z,19.77
2022-08-20T20:27:23.262Z,19.73
2022-08-20T20:29:58.610Z,19.69
2022-08-20T20:32:30.389Z,19.65
2022-08-20T20:35:02.026Z,19.60
2022-08-20T20:37:50.087Z,19.57
2022-08-20T20:40:25.499Z,19.53
2022-08-20T20:43:03.003Z,19.49
2022-08-20T20:45:34.525Z,19.46
2022-08-20T20:48:19.262Z,19.42
2022-08-20T20:50:48.196Z,19.37
2022-08-20T20:53:40.302Z,19.34
2022-08-20T20:56:28.889Z,19.31
2022-08-20T20:58:57.037Z,19.27
2022-08-20T21:01:34.518Z,19.23
2022-08-20T21:04:14.416Z,19.21
2022-08-20T21:06:42.263Z,19.18
2022-08-20T21:09:10.217Z,19.13
2022-08-20T21:11:38.073Z,19.11
2022-08-20T21:14:05.981Z,19.08
2022-08-20T21:16:33.917Z,19.03
2022-08-20T21:19:02.169Z,19.00
2022-08-20T21:21:31.420Z,18.96
2022-08-20T21:23:59.247Z,18.93
2022-08-20T21:26:29.048Z,18.89
2022-08-20T21:28:57.073Z,18.87
2022-08-20T21:31:27.365Z,18.84
2022-08-20T21:33:55.252Z,18.81
2022-08-20T21:36:23.257Z,18.79
2022-08-20T21:38:52.485Z,18.77
2022-08-20T21:41:25.125Z,18.74
2022-08-20T21:43:58.645Z,18.72
2022-08-20T21:46:28.910Z,18.71
2022-08-20T21:48:57.304Z,18.68
2022-08-20T21:51:25.344Z,18.65
2022-08-20T21:53:54.578Z,18.63
2022-08-20T21:56:22.638Z,18.60
2022-08-20T21:58:51.659Z,18.59
2022-08-20T22:01:23.740Z,18.56
2022-08-20T22:03:52.097Z,18.52
2022-08-20T22:06:20.828Z,18.50
2022-08-20T22:08:48.646Z,18.49
2022-08-20T22:11:17.983Z,18.47
2022-08-20T22:13:46.307Z,18.43
2022-08-20T22:16:16.916Z,18.40
2022-08-20T22:18:45.285Z,18.39
2022-08-20T22:21:18.720Z,18.36
2022-08-20T22:23:46.996Z,18.35
2022-08-20T22:26:17.463Z,18.33
2022-08-20T22:28:50.982Z,18.31
2022-08-20T22:31:22.230Z,18.30
2022-08-20T22:33:50.084Z,18.27
2022-08-20T22:36:18.475Z,18.25
2022-08-20T22:38:47.294Z,18.21
2022-08-20T22:41:23.508Z,18.18
2022-08-20T22:43:57.161Z,18.17
2022-08-20T22:46:27.661Z,18.15
2022-08-20T22:48:56.077Z,18.13
2022-08-20T22:51:29.058Z,18.13
2022-08-20T22:53:58.725Z,18.11
2022-08-20T22:56:26.706Z,18.11
2022-08-20T22:58:59.419Z,18.09
2022-08-20T23:01:28.302Z,18.09
2022-08-20T23:03:58.279Z,18.07
2022-08-20T23:06:27.887Z,18.06
2022-08-20T23:08:55.687Z,18.03
2022-08-20T23:11:23.553Z,18.03
2022-08-20T23:13:51.411Z,17.98
2022-08-20T23:16:20.632Z,17.95
2022-08-20T23:18:48.501Z,17.93
2022-08-20T23:21:16.859Z,17.91
2022-08-20T23:23:44.657Z,17.90
2022-08-20T23:26:13.991Z,17.91
2022-08-20T23:28:41.813Z,17.91
2022-08-20T23:31:09.633Z,17.92
2022-08-20T23:33:42.934Z,17.93
2022-08-20T23:36:13.432Z,17.93
2022-08-20T23:38:42.583Z,17.94
2022-08-20T23:41:10.529Z,17.96
2022-08-20T23:43:38.399Z,17.94
2022-08-20T23:46:08.953Z,17.92
2022-08-20T23:48:38.487Z,17.92
2022-08-20T23:51:06.679Z,17.93
2022-08-20T23:53:34.467Z,17.92
2022-08-20T23:56:02.389Z,17.92
2022-08-20T23:58:30.288Z,17.92
